Aérodrome :
LOGIN :

S'inscrire | Disclaimer

   EN    FR    IT 

 










Légende :    VFR   VFR Marginal   IFR   IFR Intensif   IFR Très Intensif
Visi : 
Plafond : 
>= 8 km
>= 3000ft
5 à 8 km
1000 à 3000 ft
1500m à 5 km
500 à 1000 ft
800 à 1500m
200 à 500 ft
< 800m
< 200 ft
Symboles :   Orages  Brouillard  Fortes neiges  Fortes précipitations  Vent > 20 kt
SIGMETs :   Divers  Orages  Givrage  Turbulence  Onde Orograph.  Cendres Volcan.






- Altitude de l'aérodrome : 479 ft
- Code IATA : DOL


LFRG - Deauville

DERNIER METAR :
  • 171530Z AUTO VRB02KT 9999 FEW012 08/04 Q1010 TEMPO BKN010

METARs EXPIRÉS :
  • 171500Z AUTO 27003KT 9999 BKN017 BKN026 08/04 Q1010 TEMPO BKN010
  • 171430Z AUTO VRB03KT 9999 SCT021 08/04 Q1010 TEMPO BKN005
  • 171400Z AUTO VRB02KT 9999 FEW011 09/05 Q1010 TEMPO BKN005
  • 171330Z AUTO VRB01KT 9999 SCT010 08/05 Q1010 TEMPO BKN005
  • 171300Z AUTO VRB02KT 9999 SCT008 08/06 Q1010 TEMPO BKN005

TAF TAF LFRG
Valide du 17 à 15h jusqu'au 18 à 00h UTC


171400Z 1715/1724 VRB03KT 9999 BKN040
PROB30
TEMPO 1715/1724 BKN010
TEMPO 1719/1724 3000 BR
ATIS : +33 2 31 65 65 36



MET'MAP, la Météo Aéronautique d'un coup d'oeil ! - Copyright ORBIFLY Décembre 2007 - Disclaimer

ORBIFLY MET'MAP TEAM :

Programmation & Développement : Alexandra Zaïnal
Conception & Développement : Baudouin d'Aumeries
Co-Programmation & Développement : Marc-Olivier Méhu
Soutien technique & logistique : Manuel Goepfert

Contact : metmap@orbifly.com




SOURCES & CREDITS :

   NOAA